Main page
METAR-TAF:

METAR-TAF

Airports :

Lisbon, Portugal

Lisbon Portela Airport

latitude: 38-46N, longitude: 009-08W, elevation: 114 m

Current weather observation

The report was made 34 minutes ago, at 21:00 UTC
Wind 5 kt from the Northwest
Temperature 10°C
Humidity 71%
Pressure 1021 hPa
Visibility 10 km or more
no clouds below 1500 m and no cumulonimbus

METAR: LPPT 212100Z 31005KT CAVOK 10/05 Q1021

Time: 21:34 (21:34 UTC)

Forecast

The report was made 4 hours and 34 minutes ago, at 17:00 UTC
Forecast valid from 21 at 18 UTC to 22 at 24 UTC
Wind 7 kt from the North/Northwest
Visibility 10 km or more
no clouds below 1500 m and no cumulonimbus

TAF: LPPT 211700Z 2118/2224 34007KT CAVOK

Weather observations and forecasts of more than 4000 airports (METAR and TAF reports).

The available stations are represented by yellow and red dots on the map.

Hover mouse over dot to see the name of the station.

Then click to see weather observations and forecasts.

To change the map : click on the green buttons with a black cross to zoom in, on the green button with a dash to zoom out, or on the green arrows for adjacent maps.


METAR-TAF: